createdAt,value
2022-11-20T00:00:15.062Z,18.42
2022-11-20T00:01:15.094Z,18.41
2022-11-20T00:02:15.251Z,18.46
2022-11-20T00:03:15.447Z,18.50
2022-11-20T00:04:15.179Z,18.44
2022-11-20T00:05:15.236Z,18.47
2022-11-20T00:06:15.235Z,18.41
2022-11-20T00:07:15.292Z,18.38
2022-11-20T00:08:15.294Z,18.42
2022-11-20T00:09:15.317Z,18.41
2022-11-20T00:10:15.352Z,18.38
2022-11-20T00:11:16.399Z,18.39
2022-11-20T00:12:15.406Z,18.47
2022-11-20T00:13:15.435Z,18.44
2022-11-20T00:14:15.463Z,18.41
2022-11-20T00:15:15.801Z,18.42
2022-11-20T00:16:15.514Z,18.36
2022-11-20T00:17:15.594Z,18.39
2022-11-20T00:18:15.577Z,18.35
2022-11-20T00:19:15.605Z,18.36
2022-11-20T00:20:15.639Z,18.36
2022-11-20T00:21:15.989Z,18.39
2022-11-20T00:22:15.730Z,18.36
2022-11-20T00:23:15.723Z,18.41
2022-11-20T00:24:15.751Z,18.31
2022-11-20T00:25:15.779Z,18.29
2022-11-20T00:26:15.809Z,18.29
2022-11-20T00:27:15.835Z,18.31
2022-11-20T00:28:15.861Z,18.28
2022-11-20T00:29:15.942Z,18.29
2022-11-20T00:30:15.926Z,18.31
2022-11-20T00:31:15.945Z,18.35
2022-11-20T00:32:16.006Z,18.31
2022-11-20T00:33:16.301Z,18.35
2022-11-20T00:34:16.036Z,18.38
2022-11-20T00:35:16.057Z,18.29
2022-11-20T00:36:16.094Z,18.34
2022-11-20T00:37:16.137Z,18.32
2022-11-20T00:38:16.149Z,18.32
2022-11-20T00:39:16.178Z,18.38
2022-11-20T00:40:16.203Z,18.34
2022-11-20T00:41:16.261Z,18.35
2022-11-20T00:42:16.385Z,18.31
2022-11-20T00:43:16.308Z,18.26
2022-11-20T00:44:16.325Z,18.32
2022-11-20T00:45:16.345Z,18.26
2022-11-20T00:46:16.380Z,18.34
2022-11-20T00:47:16.506Z,18.35
2022-11-20T00:48:16.436Z,18.35
2022-11-20T00:49:16.466Z,18.35
2022-11-20T00:50:16.488Z,18.32
2022-11-20T00:51:16.534Z,18.32
2022-11-20T00:52:16.543Z,18.32
2022-11-20T00:53:16.594Z,18.28
2022-11-20T00:54:16.707Z,18.31
2022-11-20T00:55:16.631Z,18.28
2022-11-20T00:56:16.760Z,18.31
2022-11-20T00:57:16.697Z,18.31
2022-11-20T00:58:16.980Z,18.28
2022-11-20T00:59:16.746Z,18.29
2022-11-20T01:00:16.775Z,18.32
2022-11-20T01:01:16.991Z,18.29
2022-11-20T01:02:16.833Z,18.29
2022-11-20T01:03:16.859Z,18.26
2022-11-20T01:04:16.902Z,18.26
2022-11-20T01:05:16.915Z,18.29
2022-11-20T01:06:16.946Z,18.31
2022-11-20T01:07:17.033Z,18.32
2022-11-20T01:08:17.007Z,18.28
2022-11-20T01:09:17.048Z,18.31
2022-11-20T01:11:17.090Z,18.28
2022-11-20T01:12:17.122Z,18.31
2022-11-20T01:13:20.242Z,18.28
2022-11-20T01:14:17.177Z,18.28
2022-11-20T01:15:17.202Z,18.20
2022-11-20T01:16:17.236Z,18.29
2022-11-20T01:17:17.311Z,18.28
2022-11-20T01:18:17.289Z,18.26
2022-11-20T01:19:18.202Z,18.26
2022-11-20T01:20:17.340Z,18.26
2022-11-20T01:21:17.378Z,18.28
2022-11-20T01:23:17.434Z,18.28
2022-11-20T01:25:17.488Z,18.25
2022-11-20T01:26:17.512Z,18.28
2022-11-20T01:27:17.550Z,18.31
2022-11-20T01:28:17.884Z,18.19
2022-11-20T01:30:17.633Z,18.31
2022-11-20T01:31:17.656Z,18.26
2022-11-20T01:32:17.686Z,18.21
2022-11-20T01:33:17.739Z,18.19
2022-11-20T01:34:17.752Z,18.25
2022-11-20T01:35:17.770Z,18.26
2022-11-20T01:36:17.799Z,18.21
2022-11-20T01:37:17.861Z,18.20
2022-11-20T01:38:17.863Z,18.20
2022-11-20T01:39:18.041Z,18.28
2022-11-20T01:40:18.172Z,18.20
2022-11-20T01:41:17.937Z,18.23
2022-11-20T01:43:18.008Z,18.28
2022-11-20T01:44:18.035Z,18.23
2022-11-20T01:45:18.056Z,18.21
2022-11-20T01:46:18.085Z,18.26
2022-11-20T01:47:18.129Z,18.21
2022-11-20T01:48:18.139Z,18.19
2022-11-20T01:49:18.440Z,18.31
2022-11-20T01:50:18.209Z,18.19
2022-11-20T01:52:18.260Z,18.23
2022-11-20T01:53:18.282Z,18.23
2022-11-20T01:54:18.313Z,18.21
2022-11-20T01:55:18.339Z,18.19
2022-11-20T01:56:18.379Z,18.17
2022-11-20T01:57:18.403Z,18.26
2022-11-20T01:58:18.478Z,18.21
2022-11-20T01:59:18.761Z,18.21
2022-11-20T02:00:18.489Z,18.17
2022-11-20T02:01:18.598Z,18.16
2022-11-20T02:02:18.546Z,18.21
2022-11-20T02:03:18.614Z,18.29
2022-11-20T02:04:18.603Z,18.25
2022-11-20T02:05:18.724Z,18.20
2022-11-20T02:06:18.656Z,18.17
2022-11-20T02:07:18.746Z,18.28
2022-11-20T02:08:18.713Z,18.21
2022-11-20T02:09:19.028Z,18.21
2022-11-20T02:10:18.769Z,18.25
2022-11-20T02:11:18.795Z,18.17
2022-11-20T02:12:18.825Z,18.14
2022-11-20T02:13:18.859Z,18.16
2022-11-20T02:14:18.890Z,18.17
2022-11-20T02:15:18.908Z,18.23
2022-11-20T02:16:19.291Z,18.19
2022-11-20T02:17:18.967Z,18.17
2022-11-20T02:18:18.997Z,18.23
2022-11-20T02:19:19.475Z,18.26
2022-11-20T02:20:19.056Z,18.25
2022-11-20T02:21:19.079Z,18.16
2022-11-20T02:22:19.134Z,18.16
2022-11-20T02:23:19.393Z,18.25
2022-11-20T02:24:19.172Z,18.25
2022-11-20T02:25:19.335Z,18.14
2022-11-20T02:26:19.287Z,18.19
2022-11-20T02:27:19.553Z,18.25
2022-11-20T02:29:19.741Z,18.21
2022-11-20T02:30:19.656Z,18.17
2022-11-20T02:31:19.386Z,18.16
2022-11-20T02:32:19.395Z,18.07
2022-11-20T02:33:19.425Z,18.17
2022-11-20T02:34:19.558Z,18.10
2022-11-20T02:35:19.507Z,18.16
2022-11-20T02:37:19.544Z,18.17
2022-11-20T02:38:19.566Z,18.17
2022-11-20T02:39:19.963Z,18.20
2022-11-20T02:40:19.623Z,18.14
2022-11-20T02:41:19.655Z,18.19
2022-11-20T02:42:19.793Z,18.19
2022-11-20T02:43:19.713Z,18.19
2022-11-20T02:44:19.737Z,18.14
2022-11-20T02:45:19.762Z,18.16
2022-11-20T02:46:19.798Z,18.20
2022-11-20T02:47:19.926Z,18.09
2022-11-20T02:48:19.849Z,18.17
2022-11-20T02:49:20.296Z,18.17
2022-11-20T02:50:19.905Z,18.16
2022-11-20T02:51:19.934Z,18.10
2022-11-20T02:52:19.974Z,18.14
2022-11-20T02:53:19.992Z,18.14
2022-11-20T02:54:20.020Z,18.07
2022-11-20T02:55:20.051Z,18.07
2022-11-20T02:56:20.381Z,18.20
2022-11-20T02:57:20.107Z,18.16
2022-11-20T02:58:20.143Z,18.09
2022-11-20T02:59:20.393Z,18.19
2022-11-20T03:00:20.188Z,18.07
2022-11-20T03:01:20.306Z,18.17
2022-11-20T03:02:20.252Z,18.11
2022-11-20T03:03:20.278Z,18.14
2022-11-20T03:04:20.312Z,18.09
2022-11-20T03:05:20.399Z,18.14
2022-11-20T03:06:20.361Z,18.14
2022-11-20T03:07:20.483Z,18.13
2022-11-20T03:08:20.515Z,18.14
2022-11-20T03:09:21.134Z,18.14
2022-11-20T03:10:20.483Z,18.10
2022-11-20T03:11:20.508Z,18.10
2022-11-20T03:12:20.534Z,18.09
2022-11-20T03:13:20.563Z,18.10
2022-11-20T03:14:20.591Z,18.14
2022-11-20T03:15:20.625Z,18.10
2022-11-20T03:16:20.646Z,18.07
2022-11-20T03:17:20.773Z,18.11
2022-11-20T03:18:20.703Z,18.09
2022-11-20T03:19:21.241Z,18.07
2022-11-20T03:20:20.760Z,18.13
2022-11-20T03:21:21.042Z,18.11
2022-11-20T03:22:20.821Z,18.11
2022-11-20T03:23:20.855Z,18.10
2022-11-20T03:25:20.902Z,18.10
2022-11-20T03:26:20.933Z,18.09
2022-11-20T03:27:20.961Z,18.10
2022-11-20T03:28:20.988Z,18.14
2022-11-20T03:29:21.232Z,18.11
2022-11-20T03:30:21.047Z,18.07
2022-11-20T03:31:21.071Z,18.05
2022-11-20T03:32:21.102Z,18.04
2022-11-20T03:33:21.130Z,17.98
2022-11-20T03:34:21.412Z,18.10
2022-11-20T03:35:21.188Z,18.11
2022-11-20T03:36:21.537Z,18.11
2022-11-20T03:37:21.250Z,18.05
2022-11-20T03:39:21.757Z,18.10
2022-11-20T03:40:21.345Z,18.05
2022-11-20T03:41:21.612Z,18.02
2022-11-20T03:42:21.385Z,18.04
2022-11-20T03:43:21.419Z,18.10
2022-11-20T03:44:21.446Z,18.13
2022-11-20T03:45:21.473Z,18.04
2022-11-20T03:46:21.514Z,18.11
2022-11-20T03:47:21.540Z,18.11
2022-11-20T03:48:21.562Z,18.09
2022-11-20T03:49:21.947Z,18.11
2022-11-20T03:50:21.623Z,18.11
2022-11-20T03:51:21.651Z,18.05
2022-11-20T03:52:21.684Z,18.11
2022-11-20T03:53:21.706Z,18.09
2022-11-20T03:54:21.980Z,18.11
2022-11-20T03:55:21.758Z,17.99
2022-11-20T03:56:21.889Z,18.07
2022-11-20T03:57:21.813Z,18.10
2022-11-20T03:58:21.902Z,18.13
2022-11-20T03:59:22.078Z,18.10
2022-11-20T04:00:21.899Z,18.07
2022-11-20T04:01:22.006Z,18.14
2022-11-20T04:02:21.952Z,18.05
2022-11-20T04:03:21.981Z,17.99
2022-11-20T04:04:22.017Z,18.11
2022-11-20T04:05:22.148Z,18.09
2022-11-20T04:06:22.067Z,18.07
2022-11-20T04:07:22.429Z,18.05
2022-11-20T04:08:22.125Z,18.04
2022-11-20T04:09:22.477Z,18.02
2022-11-20T04:10:22.188Z,18.11
2022-11-20T04:11:22.215Z,18.04
2022-11-20T04:12:22.244Z,18.05
2022-11-20T04:13:22.273Z,18.09
2022-11-20T04:14:22.328Z,18.05
2022-11-20T04:16:22.390Z,18.05
2022-11-20T04:17:22.378Z,18.01
2022-11-20T04:19:22.847Z,17.96
2022-11-20T04:20:22.563Z,18.09
2022-11-20T04:22:22.526Z,17.98
2022-11-20T04:23:28.444Z,18.04
2022-11-20T04:24:22.583Z,17.99
2022-11-20T04:25:22.625Z,17.99
2022-11-20T04:26:22.886Z,18.04
2022-11-20T04:27:22.666Z,17.95
2022-11-20T04:28:22.696Z,18.09
2022-11-20T04:29:23.137Z,18.07
2022-11-20T04:30:22.752Z,18.05
2022-11-20T04:31:22.773Z,17.96
2022-11-20T04:32:22.802Z,18.01
2022-11-20T04:34:22.868Z,17.98
2022-11-20T04:35:22.898Z,18.07
2022-11-20T04:37:22.944Z,17.99
2022-11-20T04:38:22.981Z,17.96
2022-11-20T04:39:23.316Z,17.95
2022-11-20T04:40:23.033Z,17.98
2022-11-20T04:41:23.069Z,17.95
2022-11-20T04:42:23.089Z,17.96
2022-11-20T04:43:23.119Z,17.96
2022-11-20T04:44:23.147Z,17.96
2022-11-20T04:45:23.174Z,17.96
2022-11-20T04:46:23.205Z,17.95
2022-11-20T04:47:23.228Z,17.95
2022-11-20T04:48:23.262Z,17.94
2022-11-20T04:49:23.583Z,17.96
2022-11-20T04:50:23.316Z,17.96
2022-11-20T04:51:23.344Z,17.94
2022-11-20T04:52:23.373Z,17.94
2022-11-20T04:53:23.399Z,17.99
2022-11-20T04:54:23.438Z,18.04
2022-11-20T04:55:23.457Z,17.98
2022-11-20T04:56:23.490Z,17.91
2022-11-20T04:57:23.818Z,17.94
2022-11-20T04:58:23.543Z,17.99
2022-11-20T04:59:23.961Z,17.99
2022-11-20T05:00:23.605Z,17.98
2022-11-20T05:02:23.702Z,17.96
2022-11-20T05:03:23.688Z,17.92
2022-11-20T05:04:23.712Z,17.95
2022-11-20T05:05:23.747Z,17.99
2022-11-20T05:06:23.769Z,17.92
2022-11-20T05:07:23.943Z,17.96
2022-11-20T05:08:23.825Z,18.04
2022-11-20T05:09:24.367Z,17.98
2022-11-20T05:10:23.882Z,17.98
2022-11-20T05:11:23.908Z,18.01
2022-11-20T05:12:23.937Z,17.98
2022-11-20T05:14:24.003Z,17.95
2022-11-20T05:15:24.031Z,17.96
2022-11-20T05:16:24.352Z,17.95
2022-11-20T05:17:24.084Z,17.96
2022-11-20T05:18:24.108Z,17.96
2022-11-20T05:19:24.137Z,17.95
2022-11-20T05:20:24.172Z,17.99
2022-11-20T05:21:24.193Z,17.99
2022-11-20T05:22:24.223Z,17.95
2022-11-20T05:23:24.549Z,17.94
2022-11-20T05:25:24.308Z,17.94
2022-11-20T05:26:24.342Z,17.96
2022-11-20T05:27:24.466Z,17.95
2022-11-20T05:28:24.389Z,17.95
2022-11-20T05:29:24.423Z,17.98
2022-11-20T05:31:27.624Z,17.95
2022-11-20T05:32:24.508Z,18.02
2022-11-20T05:33:24.530Z,17.99
2022-11-20T05:34:24.565Z,18.01
2022-11-20T05:35:24.597Z,17.94
2022-11-20T05:36:24.630Z,17.98
2022-11-20T05:37:24.648Z,17.95
2022-11-20T05:38:24.677Z,17.98
2022-11-20T05:39:24.704Z,17.89
2022-11-20T05:40:24.729Z,17.89
2022-11-20T05:41:24.759Z,17.96
2022-11-20T05:42:24.890Z,17.84
2022-11-20T05:43:24.813Z,17.96
2022-11-20T05:44:24.852Z,17.98
2022-11-20T05:45:24.875Z,17.98
2022-11-20T05:46:28.664Z,17.84
2022-11-20T05:47:24.927Z,17.98
2022-11-20T05:48:24.960Z,17.96
2022-11-20T05:49:24.991Z,17.87
2022-11-20T05:50:25.215Z,17.96
2022-11-20T05:51:25.044Z,17.89
2022-11-20T05:52:25.069Z,17.86
2022-11-20T05:53:27.624Z,17.87
2022-11-20T05:54:25.227Z,17.94
2022-11-20T05:55:25.154Z,17.98
2022-11-20T05:56:25.286Z,17.86
2022-11-20T05:57:25.210Z,17.91
2022-11-20T05:58:25.238Z,17.86
2022-11-20T05:59:25.267Z,17.81
2022-11-20T06:00:25.294Z,17.89
2022-11-20T06:01:25.329Z,17.86
2022-11-20T06:02:25.435Z,17.86
2022-11-20T06:03:25.491Z,17.81
2022-11-20T06:04:25.410Z,17.92
2022-11-20T06:05:25.438Z,17.83
2022-11-20T06:08:25.523Z,17.94
2022-11-20T06:09:25.857Z,17.81
2022-11-20T06:10:25.586Z,17.83
2022-11-20T06:11:25.705Z,17.96
2022-11-20T06:12:25.636Z,17.84
2022-11-20T06:13:25.663Z,17.91
2022-11-20T06:14:25.694Z,17.87
2022-11-20T06:16:26.061Z,17.89
2022-11-20T06:17:25.779Z,17.96
2022-11-20T06:18:25.807Z,17.83
2022-11-20T06:20:25.912Z,17.84
2022-11-20T06:21:25.888Z,17.92
2022-11-20T06:22:25.923Z,17.77
2022-11-20T06:23:25.963Z,17.89
2022-11-20T06:24:25.980Z,17.96
2022-11-20T06:25:26.006Z,17.86
2022-11-20T06:26:26.070Z,17.86
2022-11-20T06:28:26.085Z,17.89
2022-11-20T06:29:30.180Z,17.84
2022-11-20T06:30:26.155Z,17.80
2022-11-20T06:31:26.179Z,17.86
2022-11-20T06:32:26.238Z,17.84
2022-11-20T06:33:26.227Z,17.81
2022-11-20T06:34:26.303Z,17.83
2022-11-20T06:35:26.286Z,17.89
2022-11-20T06:36:26.630Z,17.83
2022-11-20T06:37:26.348Z,17.83
2022-11-20T06:38:26.378Z,17.80
2022-11-20T06:39:26.404Z,17.81
2022-11-20T06:40:26.431Z,17.83
2022-11-20T06:41:26.462Z,17.83
2022-11-20T06:42:26.505Z,17.80
2022-11-20T06:43:26.764Z,17.84
2022-11-20T06:44:26.541Z,17.87
2022-11-20T06:45:26.572Z,17.84
2022-11-20T06:46:26.612Z,17.83
2022-11-20T06:47:26.628Z,17.86
2022-11-20T06:48:26.654Z,17.84
2022-11-20T06:49:26.682Z,17.84
2022-11-20T06:50:27.010Z,17.92
2022-11-20T06:51:26.742Z,17.81
2022-11-20T06:52:26.770Z,17.94
2022-11-20T06:53:26.793Z,17.81
2022-11-20T06:54:26.819Z,17.92
2022-11-20T06:55:26.853Z,17.86
2022-11-20T06:56:26.882Z,17.80
2022-11-20T06:57:27.157Z,17.80
2022-11-20T06:58:26.941Z,17.80
2022-11-20T06:59:26.962Z,17.84
2022-11-20T07:00:26.992Z,17.83
2022-11-20T07:01:27.106Z,17.83
2022-11-20T07:02:27.050Z,17.92
2022-11-20T07:03:27.079Z,17.84
2022-11-20T07:04:27.408Z,17.84
2022-11-20T07:05:27.131Z,17.83
2022-11-20T07:06:27.162Z,17.86
2022-11-20T07:07:27.263Z,17.87
2022-11-20T07:08:27.222Z,17.87
2022-11-20T07:09:27.653Z,17.86
2022-11-20T07:10:27.275Z,17.84
2022-11-20T07:11:27.551Z,17.83
2022-11-20T07:12:27.331Z,17.84
2022-11-20T07:13:27.359Z,17.83
2022-11-20T07:14:27.387Z,17.83
2022-11-20T07:15:27.412Z,17.89
2022-11-20T07:16:27.455Z,17.84
2022-11-20T07:17:27.473Z,17.84
2022-11-20T07:18:27.751Z,17.81
2022-11-20T07:19:27.532Z,17.83
2022-11-20T07:20:27.608Z,17.84
2022-11-20T07:21:27.589Z,17.80
2022-11-20T07:22:27.616Z,17.89
2022-11-20T07:23:27.644Z,17.79
2022-11-20T07:24:27.679Z,17.86
2022-11-20T07:25:27.957Z,17.83
2022-11-20T07:26:27.750Z,17.83
2022-11-20T07:27:27.764Z,17.83
2022-11-20T07:28:27.785Z,17.81
2022-11-20T07:29:27.813Z,17.80
2022-11-20T07:30:27.874Z,17.83
2022-11-20T07:31:27.870Z,17.83
2022-11-20T07:32:28.198Z,17.79
2022-11-20T07:33:27.921Z,17.80
2022-11-20T07:34:27.952Z,17.84
2022-11-20T07:35:27.986Z,17.86
2022-11-20T07:36:28.008Z,17.79
2022-11-20T07:37:28.034Z,17.86
2022-11-20T07:38:28.071Z,17.80
2022-11-20T07:39:28.393Z,17.94
2022-11-20T07:40:28.120Z,17.87
2022-11-20T07:41:28.158Z,17.94
2022-11-20T07:42:28.177Z,17.84
2022-11-20T07:43:28.210Z,17.84
2022-11-20T07:44:28.240Z,17.84
2022-11-20T07:45:28.266Z,17.83
2022-11-20T07:46:28.568Z,17.91
2022-11-20T07:47:28.319Z,17.89
2022-11-20T07:48:28.347Z,17.95
2022-11-20T07:49:28.373Z,17.94
2022-11-20T07:50:28.413Z,17.96
2022-11-20T07:51:28.432Z,17.87
2022-11-20T07:52:28.459Z,17.83
2022-11-20T07:53:28.486Z,17.84
2022-11-20T07:54:28.532Z,17.92
2022-11-20T07:55:28.552Z,17.89
2022-11-20T07:56:28.573Z,17.86
2022-11-20T07:57:28.751Z,17.83
2022-11-20T07:58:28.929Z,17.89
2022-11-20T07:59:28.660Z,17.96
2022-11-20T08:00:28.790Z,17.83
2022-11-20T08:01:28.718Z,17.86
2022-11-20T08:02:28.815Z,17.94
2022-11-20T08:03:28.767Z,17.89
2022-11-20T08:04:28.814Z,17.84
2022-11-20T08:06:28.858Z,17.94
2022-11-20T08:07:28.934Z,17.83
2022-11-20T08:08:32.214Z,17.87
2022-11-20T08:09:28.957Z,17.87
2022-11-20T08:10:29.305Z,17.94
2022-11-20T08:11:29.013Z,17.89
2022-11-20T08:12:29.024Z,17.89
2022-11-20T08:13:29.061Z,17.91
2022-11-20T08:14:29.083Z,17.95
2022-11-20T08:15:29.110Z,17.96
2022-11-20T08:16:29.163Z,17.98
2022-11-20T08:17:29.472Z,17.99
2022-11-20T08:18:32.203Z,17.99
2022-11-20T08:19:29.225Z,17.94
2022-11-20T08:20:29.279Z,17.94
2022-11-20T08:21:32.769Z,18.01
2022-11-20T08:22:29.308Z,17.98
2022-11-20T08:23:29.334Z,17.99
2022-11-20T08:24:29.670Z,17.98
2022-11-20T08:25:29.393Z,17.92
2022-11-20T08:26:29.423Z,18.01
2022-11-20T08:27:29.450Z,17.99
2022-11-20T08:28:29.486Z,18.01
2022-11-20T08:29:29.503Z,18.02
2022-11-20T08:30:29.532Z,17.99
2022-11-20T08:31:29.866Z,17.99
2022-11-20T08:32:29.588Z,17.94
2022-11-20T08:33:29.623Z,17.96
2022-11-20T08:34:29.649Z,17.92
2022-11-20T08:35:29.677Z,17.95
2022-11-20T08:36:29.803Z,17.98
2022-11-20T08:37:29.733Z,18.01
2022-11-20T08:38:30.161Z,17.96
2022-11-20T08:39:29.792Z,17.99
2022-11-20T08:40:29.828Z,18.04
2022-11-20T08:41:29.849Z,18.04
2022-11-20T08:42:29.899Z,17.99
2022-11-20T08:43:29.905Z,18.04
2022-11-20T08:44:29.925Z,17.98
2022-11-20T08:45:34.068Z,17.99
2022-11-20T08:46:29.983Z,18.07
2022-11-20T08:47:30.019Z,18.09
2022-11-20T08:48:30.062Z,18.13
2022-11-20T08:49:30.069Z,18.10
2022-11-20T08:50:30.101Z,17.96
2022-11-20T08:51:30.125Z,18.02
2022-11-20T08:52:30.157Z,18.09
2022-11-20T08:53:30.199Z,18.04
2022-11-20T08:54:30.218Z,18.13
2022-11-20T08:55:30.253Z,18.11
2022-11-20T08:56:30.268Z,18.10
2022-11-20T08:57:30.297Z,18.09
2022-11-20T08:58:31.205Z,18.05
2022-11-20T09:00:04.361Z,18.09
2022-11-20T09:00:30.383Z,18.11
2022-11-20T09:01:30.505Z,18.07
2022-11-20T09:02:30.443Z,18.11
2022-11-20T09:04:30.749Z,18.13
2022-11-20T09:05:30.553Z,18.10
2022-11-20T09:06:30.548Z,18.02
2022-11-20T09:07:30.619Z,18.02
2022-11-20T09:08:30.609Z,18.09
2022-11-20T09:09:30.646Z,18.14
2022-11-20T09:10:30.675Z,18.10
2022-11-20T09:11:30.703Z,18.13
2022-11-20T09:12:30.722Z,18.11
2022-11-20T09:13:30.763Z,18.09
2022-11-20T09:14:30.786Z,18.04
2022-11-20T09:15:30.813Z,18.09
2022-11-20T09:16:31.151Z,18.11
2022-11-20T09:17:30.872Z,18.05
2022-11-20T09:18:30.894Z,18.09
2022-11-20T09:19:35.871Z,18.10
2022-11-20T09:20:30.944Z,18.09
2022-11-20T09:21:30.981Z,18.10
2022-11-20T09:22:31.010Z,18.07
2022-11-20T09:23:31.034Z,18.10
2022-11-20T09:24:31.067Z,18.09
2022-11-20T09:25:31.097Z,18.10
2022-11-20T09:26:31.120Z,18.16
2022-11-20T09:27:31.147Z,18.19
2022-11-20T09:28:31.179Z,18.19
2022-11-20T09:29:31.462Z,18.26
2022-11-20T09:31:31.268Z,18.29
2022-11-20T09:32:31.294Z,18.28
2022-11-20T09:33:31.320Z,18.26
2022-11-20T09:34:31.354Z,18.29
2022-11-20T09:35:31.479Z,18.41
2022-11-20T09:36:31.654Z,18.39
2022-11-20T09:37:31.433Z,18.41
2022-11-20T09:38:31.464Z,18.41
2022-11-20T09:39:31.492Z,18.39
2022-11-20T09:40:31.516Z,18.44
2022-11-20T09:41:31.545Z,18.44
2022-11-20T09:42:31.583Z,18.44
2022-11-20T09:43:34.705Z,18.38
2022-11-20T09:44:31.635Z,18.51
2022-11-20T09:45:31.660Z,18.50
2022-11-20T09:46:31.688Z,18.53
2022-11-20T09:47:31.743Z,18.44
2022-11-20T09:50:32.109Z,18.47
2022-11-20T09:51:31.839Z,18.51
2022-11-20T09:52:31.858Z,18.54
2022-11-20T09:53:31.887Z,18.46
2022-11-20T09:54:31.927Z,18.51
2022-11-20T09:56:32.277Z,18.53
2022-11-20T09:57:32.032Z,18.53
2022-11-20T09:58:32.032Z,18.47
2022-11-20T09:59:32.162Z,18.49
2022-11-20T10:00:32.094Z,18.56
2022-11-20T10:01:32.159Z,18.50
2022-11-20T10:02:32.147Z,18.49
2022-11-20T10:03:32.276Z,18.51
2022-11-20T10:04:34.584Z,18.62
2022-11-20T10:05:32.229Z,18.57
2022-11-20T10:06:32.276Z,18.62
2022-11-20T10:07:33.339Z,18.46
2022-11-20T10:08:32.318Z,18.62
2022-11-20T10:09:32.351Z,18.51
2022-11-20T10:10:32.378Z,18.49
2022-11-20T10:11:32.401Z,18.56
2022-11-20T10:12:32.434Z,18.56
2022-11-20T10:13:32.469Z,18.54
2022-11-20T10:14:32.737Z,18.59
2022-11-20T10:16:36.641Z,18.49
2022-11-20T10:17:32.577Z,18.56
2022-11-20T10:18:32.653Z,18.44
2022-11-20T10:19:32.632Z,18.59
2022-11-20T10:20:32.660Z,18.54
2022-11-20T10:21:32.993Z,18.49
2022-11-20T10:22:32.770Z,18.49
2022-11-20T10:23:32.765Z,18.59
2022-11-20T10:24:32.776Z,18.49
2022-11-20T10:25:32.805Z,18.50
2022-11-20T10:26:32.832Z,18.54
2022-11-20T10:27:32.860Z,18.49
2022-11-20T10:28:33.193Z,18.59
2022-11-20T10:30:32.942Z,18.54
2022-11-20T10:31:32.977Z,18.69
2022-11-20T10:32:33.004Z,18.68
2022-11-20T10:33:49.953Z,18.65
2022-11-20T10:34:33.158Z,18.62
2022-11-20T10:35:33.340Z,18.69
2022-11-20T10:36:33.119Z,18.69
2022-11-20T10:37:33.146Z,18.68
2022-11-20T10:38:33.173Z,18.72
2022-11-20T10:39:33.203Z,18.75
2022-11-20T10:40:33.228Z,18.72
2022-11-20T10:41:35.895Z,18.75
2022-11-20T10:42:33.589Z,18.78
2022-11-20T10:43:33.315Z,18.74
2022-11-20T10:45:33.378Z,18.76
2022-11-20T10:46:33.406Z,18.74
2022-11-20T10:47:33.434Z,18.83
2022-11-20T10:48:33.464Z,18.84
2022-11-20T10:49:33.488Z,18.78
2022-11-20T10:50:33.546Z,18.82
2022-11-20T10:51:33.548Z,18.84
2022-11-20T10:52:33.580Z,18.76
2022-11-20T10:53:33.616Z,18.78
2022-11-20T10:54:33.632Z,18.76
2022-11-20T10:55:33.661Z,18.82
2022-11-20T10:56:33.690Z,18.76
2022-11-20T10:57:33.719Z,18.84
2022-11-20T10:58:33.751Z,18.78
2022-11-20T10:59:33.777Z,18.75
2022-11-20T11:00:33.814Z,18.83
2022-11-20T11:01:34.164Z,18.84
2022-11-20T11:02:33.864Z,18.74
2022-11-20T11:03:33.894Z,18.82
2022-11-20T11:04:33.922Z,18.78
2022-11-20T11:05:33.952Z,18.82
2022-11-20T11:06:33.978Z,18.79
2022-11-20T11:07:34.094Z,18.83
2022-11-20T11:08:34.041Z,18.87
2022-11-20T11:09:34.065Z,18.83
2022-11-20T11:10:34.095Z,18.86
2022-11-20T11:11:34.123Z,18.76
2022-11-20T11:12:34.155Z,18.84
2022-11-20T11:13:34.482Z,18.78
2022-11-20T11:14:34.208Z,18.89
2022-11-20T11:15:34.239Z,18.79
2022-11-20T11:16:34.271Z,18.78
2022-11-20T11:17:34.294Z,18.75
2022-11-20T11:18:34.325Z,18.75
2022-11-20T11:20:34.680Z,18.75
2022-11-20T11:21:34.512Z,18.79
2022-11-20T11:22:34.442Z,18.82
2022-11-20T11:23:34.469Z,18.86
2022-11-20T11:24:43.185Z,18.79
2022-11-20T11:25:34.524Z,18.74
2022-11-20T11:26:34.556Z,18.76
2022-11-20T11:27:34.582Z,18.78
2022-11-20T11:28:34.623Z,18.82
2022-11-20T11:29:34.637Z,18.82
2022-11-20T11:30:34.670Z,18.75
2022-11-20T11:31:34.695Z,18.74
2022-11-20T11:32:34.724Z,18.79
2022-11-20T11:33:35.002Z,18.75
2022-11-20T11:34:34.791Z,18.83
2022-11-20T11:35:34.810Z,18.75
2022-11-20T11:36:34.843Z,18.76
2022-11-20T11:37:34.875Z,18.74
2022-11-20T11:39:34.932Z,18.74
2022-11-20T11:40:34.957Z,18.76
2022-11-20T11:41:34.992Z,18.74
2022-11-20T11:42:35.010Z,18.74
2022-11-20T11:43:36.926Z,18.76
2022-11-20T11:44:35.072Z,18.74
2022-11-20T11:45:35.209Z,18.75
2022-11-20T11:46:35.425Z,18.75
2022-11-20T11:47:35.162Z,18.75
2022-11-20T11:48:35.184Z,18.75
2022-11-20T11:49:35.215Z,18.83
2022-11-20T11:50:35.250Z,18.71
2022-11-20T11:51:35.271Z,18.72
2022-11-20T11:52:35.300Z,18.76
2022-11-20T11:53:35.594Z,18.78
2022-11-20T11:54:35.360Z,18.74
2022-11-20T11:55:35.392Z,18.79
2022-11-20T11:56:35.416Z,18.82
2022-11-20T11:57:35.554Z,18.75
2022-11-20T11:58:35.472Z,18.76
2022-11-20T12:01:35.821Z,18.79
2022-11-20T12:02:35.662Z,18.76
2022-11-20T12:03:35.644Z,18.74
2022-11-20T12:04:35.769Z,18.74
2022-11-20T12:05:35.720Z,18.69
2022-11-20T12:06:35.700Z,18.72
2022-11-20T12:07:51.101Z,18.76
2022-11-20T12:08:35.822Z,18.69
2022-11-20T12:09:35.793Z,18.82
2022-11-20T12:10:35.818Z,18.74
2022-11-20T12:11:35.857Z,18.76
2022-11-20T12:12:35.877Z,18.78
2022-11-20T12:13:35.916Z,18.79
2022-11-20T12:14:36.183Z,18.74
2022-11-20T12:15:35.965Z,18.71
2022-11-20T12:16:35.986Z,18.71
2022-11-20T12:17:36.022Z,18.74
2022-11-20T12:18:36.100Z,18.76
2022-11-20T12:19:36.076Z,18.74
2022-11-20T12:21:36.135Z,18.69
2022-11-20T12:22:36.266Z,18.69
2022-11-20T12:23:36.190Z,18.78
2022-11-20T12:24:36.219Z,18.71
2022-11-20T12:25:36.264Z,18.69
2022-11-20T12:26:36.594Z,18.72
2022-11-20T12:27:36.306Z,18.74
2022-11-20T12:28:36.334Z,18.76
2022-11-20T12:30:36.480Z,18.76
2022-11-20T12:31:36.422Z,18.74
2022-11-20T12:32:36.523Z,18.76
2022-11-20T12:33:36.777Z,18.75
2022-11-20T12:34:36.511Z,18.75
2022-11-20T12:35:36.543Z,18.74
2022-11-20T12:36:36.565Z,18.76
2022-11-20T12:37:36.805Z,18.76
2022-11-20T12:38:36.878Z,18.74
2022-11-20T12:39:36.652Z,18.74
2022-11-20T12:40:36.683Z,18.72
2022-11-20T12:41:36.713Z,18.72
2022-11-20T12:42:36.740Z,18.78
2022-11-20T12:43:36.771Z,18.74
2022-11-20T12:44:36.794Z,18.74
2022-11-20T12:45:36.826Z,18.76
2022-11-20T12:46:36.853Z,18.78
2022-11-20T12:47:36.888Z,18.79
2022-11-20T12:48:36.911Z,18.83
2022-11-20T12:50:47.572Z,18.76
2022-11-20T12:51:37.000Z,18.76
2022-11-20T12:52:37.042Z,18.78
2022-11-20T12:53:37.132Z,18.83
2022-11-20T12:54:37.081Z,18.83
2022-11-20T12:55:37.112Z,18.79
2022-11-20T12:56:37.144Z,18.86
2022-11-20T12:57:37.171Z,18.83
2022-11-20T12:58:37.195Z,18.86
2022-11-20T12:59:37.221Z,18.87
2022-11-20T13:00:37.255Z,18.82
2022-11-20T13:01:37.348Z,18.87
2022-11-20T13:02:37.748Z,18.89
2022-11-20T13:03:37.346Z,18.86
2022-11-20T13:04:37.374Z,18.93
2022-11-20T13:05:37.417Z,18.89
2022-11-20T13:06:37.429Z,18.89
2022-11-20T13:07:37.582Z,18.99
2022-11-20T13:08:37.791Z,18.89
2022-11-20T13:09:37.514Z,19.05
2022-11-20T13:10:37.544Z,18.91
2022-11-20T13:11:37.570Z,18.96
2022-11-20T13:12:37.599Z,18.86
2022-11-20T13:13:37.633Z,18.97
2022-11-20T13:14:37.660Z,18.91
2022-11-20T13:15:37.689Z,18.87
2022-11-20T13:16:37.715Z,18.89
2022-11-20T13:17:37.748Z,18.94
2022-11-20T13:18:37.774Z,18.96
2022-11-20T13:19:37.901Z,18.96
2022-11-20T13:20:37.830Z,18.93
2022-11-20T13:21:38.160Z,18.90
2022-11-20T13:22:37.902Z,18.89
2022-11-20T13:23:37.916Z,18.87
2022-11-20T13:24:37.943Z,18.99
2022-11-20T13:25:37.975Z,18.87
2022-11-20T13:26:38.010Z,19.05
2022-11-20T13:27:38.035Z,18.87
2022-11-20T13:28:38.311Z,19.05
2022-11-20T13:29:38.090Z,18.94
2022-11-20T13:30:38.126Z,19.02
2022-11-20T13:31:38.196Z,19.02
2022-11-20T13:32:38.179Z,18.93